createdAt,value
2023-05-15T00:00:44.533Z,9.20
2023-05-15T00:03:12.559Z,9.20
2023-05-15T00:05:39.883Z,9.80
2023-05-15T00:08:06.850Z,10.90
2023-05-15T00:10:33.636Z,9.20
2023-05-15T00:13:00.581Z,9.10
2023-05-15T00:15:27.477Z,9.10
2023-05-15T00:17:54.628Z,10.30
2023-05-15T00:20:21.669Z,9.10
2023-05-15T00:22:48.431Z,9.10
2023-05-15T00:25:15.433Z,9.20
2023-05-15T00:27:42.273Z,9.10
2023-05-15T00:30:09.589Z,9.10
2023-05-15T00:32:36.426Z,9.20
2023-05-15T00:35:03.424Z,10.30
2023-05-15T00:37:30.367Z,9.20
2023-05-15T00:42:24.685Z,9.20
2023-05-15T00:44:52.165Z,9.20
2023-05-15T00:47:20.712Z,9.20
2023-05-15T00:49:50.630Z,9.30
2023-05-15T00:52:17.564Z,9.30
2023-05-15T00:57:12.133Z,9.40
2023-05-15T00:59:39.861Z,9.40
2023-05-15T01:02:06.881Z,10.00
2023-05-15T01:04:33.835Z,9.40
2023-05-15T01:07:00.658Z,9.40
2023-05-15T01:09:27.951Z,9.40
2023-05-15T01:11:55.056Z,9.50
2023-05-15T01:14:22.071Z,9.50
2023-05-15T01:16:48.837Z,9.50
2023-05-15T01:19:15.803Z,9.50
2023-05-15T01:22:04.151Z,9.50
2023-05-15T01:24:53.606Z,9.60
2023-05-15T01:27:35.610Z,9.60
2023-05-15T01:30:27.368Z,9.60
2023-05-15T01:32:56.119Z,9.60
2023-05-15T01:35:32.185Z,9.40
2023-05-15T01:38:19.983Z,9.60
2023-05-15T01:40:47.974Z,9.60
2023-05-15T01:43:18.534Z,9.60
2023-05-15T01:45:46.076Z,9.60
2023-05-15T01:48:12.994Z,9.50
2023-05-15T01:50:39.769Z,9.50
2023-05-15T01:53:06.703Z,9.50
2023-05-15T01:55:33.528Z,9.50
2023-05-15T01:58:00.832Z,10.60
2023-05-15T02:00:28.341Z,9.50
2023-05-15T02:02:55.151Z,9.60
2023-05-15T02:05:22.156Z,9.50
2023-05-15T02:07:49.092Z,9.50
2023-05-15T02:10:15.906Z,9.50
2023-05-15T02:12:42.901Z,9.50
2023-05-15T02:18:58.212Z,9.40
2023-05-15T02:21:25.059Z,9.40
2023-05-15T02:23:51.756Z,9.50
2023-05-15T02:26:24.590Z,9.30
2023-05-15T02:29:06.931Z,9.30
2023-05-15T02:31:45.711Z,9.30
2023-05-15T02:34:20.153Z,9.20
2023-05-15T02:36:48.061Z,9.20
2023-05-15T02:39:14.741Z,9.10
2023-05-15T02:41:41.721Z,9.10
2023-05-15T02:44:08.766Z,9.20
2023-05-15T02:46:35.489Z,9.20
2023-05-15T02:53:58.226Z,9.30
2023-05-15T02:56:24.866Z,9.30
2023-05-15T02:58:51.517Z,9.10
2023-05-15T03:01:18.313Z,9.30
2023-05-15T03:03:45.243Z,9.30
2023-05-15T03:06:12.123Z,9.40
2023-05-15T03:08:38.877Z,9.40
2023-05-15T03:11:06.179Z,9.40
2023-05-15T03:13:32.947Z,9.80
2023-05-15T03:16:00.156Z,9.40
2023-05-15T03:18:26.886Z,9.30
2023-05-15T03:20:53.638Z,9.40
2023-05-15T03:23:20.366Z,9.30
2023-05-15T03:25:47.401Z,9.30
2023-05-15T03:28:14.166Z,9.30
2023-05-15T03:30:44.330Z,9.30
2023-05-15T03:33:11.127Z,10.00
2023-05-15T03:35:38.109Z,9.20
2023-05-15T03:38:05.057Z,9.20
2023-05-15T03:40:31.808Z,11.70
2023-05-15T03:42:58.558Z,9.20
2023-05-15T03:47:55.395Z,9.10
2023-05-15T03:50:22.313Z,9.10
2023-05-15T03:52:49.267Z,9.10
2023-05-15T03:55:16.040Z,9.20
2023-05-15T03:57:43.084Z,9.10
2023-05-15T04:05:06.239Z,9.20
2023-05-15T04:07:33.357Z,9.30
2023-05-15T04:12:33.996Z,9.40
2023-05-15T04:15:16.276Z,9.40
2023-05-15T04:17:44.243Z,9.40
2023-05-15T04:20:12.000Z,9.60
2023-05-15T04:22:38.838Z,9.50
2023-05-15T04:25:06.045Z,9.50
2023-05-15T04:27:32.738Z,9.50
2023-05-15T04:30:00.226Z,9.50
2023-05-15T04:32:27.666Z,9.60
2023-05-15T04:34:54.562Z,12.40
2023-05-15T04:39:48.523Z,9.70
2023-05-15T04:47:11.681Z,9.80
2023-05-15T04:52:05.583Z,9.90
2023-05-15T04:54:32.562Z,10.00
2023-05-15T04:56:59.373Z,10.00
2023-05-15T04:59:27.998Z,10.00
2023-05-15T05:04:23.692Z,10.20
2023-05-15T05:14:14.859Z,10.30
2023-05-15T05:16:42.202Z,10.30
2023-05-15T05:19:09.046Z,10.50
2023-05-15T05:21:35.836Z,10.40
2023-05-15T05:24:02.756Z,10.30
2023-05-15T05:26:29.519Z,10.30
2023-05-15T05:28:56.599Z,10.30
2023-05-15T05:31:23.447Z,10.40
2023-05-15T05:33:51.679Z,10.50
2023-05-15T05:38:46.037Z,10.40
2023-05-15T05:41:12.991Z,10.40
2023-05-15T05:48:34.538Z,10.50
2023-05-15T06:00:53.383Z,11.00
2023-05-15T06:15:38.480Z,11.40
2023-05-15T06:18:07.913Z,11.40
2023-05-15T06:20:34.962Z,11.30
2023-05-15T06:23:02.380Z,11.40
2023-05-15T06:27:56.376Z,11.50
2023-05-15T06:56:46.386Z,13.80
2023-05-15T07:02:05.995Z,13.50
2023-05-15T07:04:33.017Z,13.70
2023-05-15T07:07:00.053Z,13.70
2023-05-15T07:09:28.110Z,13.80
2023-05-15T07:11:55.361Z,13.60
2023-05-15T07:17:37.974Z,13.50
2023-05-15T07:25:46.667Z,13.80
2023-05-15T07:31:06.171Z,13.90
2023-05-15T07:47:51.255Z,13.60
2023-05-15T07:50:35.256Z,13.90
2023-05-15T07:53:10.082Z,14.30
2023-05-15T07:56:00.464Z,14.30
2023-05-15T07:58:28.726Z,14.80
2023-05-15T08:01:17.597Z,14.60
2023-05-15T08:03:46.172Z,14.30
2023-05-15T08:06:13.159Z,14.40
2023-05-15T08:08:40.589Z,14.90
2023-05-15T08:11:07.386Z,15.50
2023-05-15T08:13:34.138Z,15.30
2023-05-15T08:16:00.930Z,15.20
2023-05-15T08:18:27.712Z,15.10
2023-05-15T08:20:54.447Z,15.50
2023-05-15T08:23:21.198Z,16.20
2023-05-15T08:25:47.928Z,16.30
2023-05-15T08:28:15.035Z,16.00
2023-05-15T08:33:08.990Z,16.50
2023-05-15T08:38:03.320Z,16.50
2023-05-15T08:40:39.032Z,16.40
2023-05-15T08:43:13.892Z,16.20
2023-05-15T08:45:41.455Z,16.10
2023-05-15T08:48:28.177Z,16.00
2023-05-15T08:50:55.808Z,16.10
2023-05-15T08:53:22.649Z,16.40
2023-05-15T08:58:17.329Z,16.30
2023-05-15T09:03:15.029Z,15.80
2023-05-15T09:05:41.893Z,15.70
2023-05-15T09:08:08.734Z,15.60
2023-05-15T09:10:36.688Z,15.40
2023-05-15T09:13:04.493Z,15.60
2023-05-15T09:17:58.680Z,16.20
2023-05-15T09:20:36.223Z,15.80
2023-05-15T09:23:04.779Z,15.50
2023-05-15T09:25:42.891Z,15.70
2023-05-15T09:28:11.559Z,15.80
2023-05-15T09:30:39.005Z,16.20
2023-05-15T09:33:05.832Z,17.90
2023-05-15T09:35:34.316Z,17.30
2023-05-15T09:38:01.866Z,18.10
2023-05-15T09:40:30.201Z,17.20
2023-05-15T09:42:57.800Z,17.20
2023-05-15T09:45:30.024Z,17.80
2023-05-15T09:47:59.679Z,17.40
2023-05-15T09:50:35.858Z,17.30
2023-05-15T09:53:02.677Z,17.10
2023-05-15T09:55:32.481Z,16.70
2023-05-15T09:58:12.570Z,17.00
2023-05-15T10:00:47.632Z,17.00
2023-05-15T10:03:16.951Z,17.70
2023-05-15T10:08:11.667Z,18.70
2023-05-15T10:10:38.801Z,18.80
2023-05-15T10:15:36.051Z,18.20
2023-05-15T10:18:04.226Z,17.80
2023-05-15T10:20:32.083Z,17.50
2023-05-15T10:22:59.352Z,17.80
2023-05-15T10:25:54.458Z,17.90
2023-05-15T10:28:21.165Z,18.10
2023-05-15T10:33:15.297Z,17.80
2023-05-15T10:35:42.032Z,17.50
2023-05-15T10:38:09.331Z,17.40
2023-05-15T10:40:37.380Z,17.00
2023-05-15T10:43:04.067Z,16.80
2023-05-15T10:45:31.052Z,18.60
2023-05-15T10:47:57.826Z,16.50
2023-05-15T10:50:24.798Z,18.40
2023-05-15T10:52:52.566Z,16.50
2023-05-15T10:55:19.429Z,16.40
2023-05-15T10:57:47.219Z,16.20
2023-05-15T11:00:34.423Z,17.80
2023-05-15T11:03:02.039Z,17.80
2023-05-15T11:10:48.483Z,15.80
2023-05-15T11:15:43.764Z,15.30
2023-05-15T11:18:10.789Z,15.30
2023-05-15T11:20:42.381Z,15.30
2023-05-15T11:23:09.220Z,15.10
2023-05-15T11:25:36.307Z,15.10
2023-05-15T11:30:47.159Z,16.10
2023-05-15T11:33:13.938Z,16.10
2023-05-15T11:35:46.814Z,16.50
2023-05-15T11:38:24.697Z,16.00
2023-05-15T11:41:02.762Z,15.80
2023-05-15T11:43:30.621Z,16.30
2023-05-15T11:46:00.112Z,16.60
2023-05-15T11:48:39.234Z,16.30
2023-05-15T11:51:06.087Z,16.30
2023-05-15T11:53:33.394Z,16.20
2023-05-15T11:56:00.181Z,16.20
2023-05-15T11:58:27.125Z,16.00
2023-05-15T12:26:59.413Z,13.00
2023-05-15T12:29:38.201Z,12.90
2023-05-15T12:32:26.013Z,13.00
2023-05-15T12:38:05.180Z,13.10
2023-05-15T12:40:41.233Z,13.40
2023-05-15T12:43:16.586Z,13.40
2023-05-15T12:51:25.324Z,13.80
2023-05-15T13:00:27.354Z,14.00
2023-05-15T13:02:56.678Z,14.10
2023-05-15T14:36:32.273Z,13.30
2023-05-15T14:54:11.065Z,14.00
2023-05-15T15:40:45.475Z,14.90
2023-05-15T15:48:58.224Z,15.50
2023-05-15T15:51:25.358Z,15.90
2023-05-15T15:53:53.035Z,15.80
2023-05-15T16:02:05.606Z,15.40
2023-05-15T16:04:32.689Z,15.10
2023-05-15T16:09:30.295Z,14.90
2023-05-15T16:14:51.662Z,14.60
2023-05-15T16:19:55.666Z,14.40
2023-05-15T16:37:36.148Z,14.40
2023-05-15T17:16:29.666Z,13.70
2023-05-15T17:27:02.476Z,13.60
2023-05-15T17:29:35.543Z,13.60
2023-05-15T17:49:18.162Z,13.80
2023-05-15T17:54:37.045Z,13.80
2023-05-15T18:03:16.654Z,13.60
2023-05-15T18:17:11.892Z,13.10
2023-05-15T18:22:47.255Z,13.00
2023-05-15T18:25:32.612Z,12.90
2023-05-15T18:30:40.542Z,12.70
2023-05-15T18:33:15.580Z,12.70
2023-05-15T18:35:52.770Z,13.60
2023-05-15T18:38:21.450Z,13.00
2023-05-15T18:40:51.474Z,12.60
2023-05-15T18:43:19.330Z,12.60
2023-05-15T18:48:38.206Z,12.50
2023-05-15T18:56:06.000Z,12.20
2023-05-15T18:58:32.962Z,12.30
2023-05-15T19:01:01.668Z,12.30
2023-05-15T19:05:56.927Z,12.10
2023-05-15T19:08:24.012Z,12.10
2023-05-15T19:10:51.069Z,12.00
2023-05-15T19:13:19.022Z,12.00
2023-05-15T19:15:52.688Z,12.20
2023-05-15T19:18:19.994Z,11.80
2023-05-15T19:20:57.489Z,11.80
2023-05-15T19:23:25.145Z,11.80
2023-05-15T19:25:52.053Z,11.70
2023-05-15T19:28:19.046Z,11.60
2023-05-15T19:33:16.233Z,11.40
2023-05-15T19:35:42.952Z,11.40
2023-05-15T19:38:09.728Z,11.30
2023-05-15T19:40:36.657Z,11.30
2023-05-15T19:43:03.553Z,11.30
2023-05-15T19:50:27.789Z,11.10
2023-05-15T19:55:22.174Z,11.00
2023-05-15T19:57:49.295Z,10.90
2023-05-15T20:00:16.300Z,10.80
2023-05-15T20:02:43.158Z,10.70
2023-05-15T20:05:10.007Z,12.10
2023-05-15T20:07:37.348Z,11.40
2023-05-15T20:10:05.022Z,10.60
2023-05-15T20:12:31.846Z,10.50
2023-05-15T20:17:26.727Z,10.60
2023-05-15T20:19:53.912Z,10.10
2023-05-15T20:22:20.770Z,10.50
2023-05-15T20:27:15.099Z,10.40
2023-05-15T20:29:41.931Z,12.00
2023-05-15T20:32:08.836Z,10.40
2023-05-15T20:34:36.896Z,10.40
2023-05-15T20:39:31.353Z,10.20
2023-05-15T20:41:58.280Z,10.10
2023-05-15T20:44:25.093Z,10.00
2023-05-15T20:46:51.986Z,12.30
2023-05-15T20:49:18.700Z,11.00
2023-05-15T20:51:48.642Z,10.10
2023-05-15T20:54:16.190Z,10.70
2023-05-15T20:59:10.280Z,9.90
2023-05-15T21:01:37.060Z,9.90
2023-05-15T21:04:03.911Z,9.90
2023-05-15T21:06:31.124Z,9.90
2023-05-15T21:08:57.830Z,9.90
2023-05-15T21:11:24.888Z,9.80
2023-05-15T21:13:51.612Z,9.80
2023-05-15T21:16:18.462Z,10.00
2023-05-15T21:18:45.421Z,9.70
2023-05-15T21:21:12.147Z,9.70
2023-05-15T21:23:38.970Z,9.60
2023-05-15T21:26:05.765Z,9.60
2023-05-15T21:28:32.770Z,9.70
2023-05-15T21:31:08.876Z,9.70
2023-05-15T21:33:35.792Z,9.60
2023-05-15T21:36:05.665Z,11.30
2023-05-15T21:38:32.773Z,9.60
2023-05-15T21:40:59.617Z,11.00
2023-05-15T21:43:26.671Z,9.60
2023-05-15T21:45:56.872Z,9.50
2023-05-15T21:53:18.477Z,9.40
2023-05-15T21:55:45.314Z,9.40
2023-05-15T21:58:12.031Z,9.40
2023-05-15T22:00:40.263Z,9.40
2023-05-15T22:05:34.528Z,9.30
2023-05-15T22:10:28.624Z,9.30
2023-05-15T22:12:55.433Z,9.30
2023-05-15T22:17:49.547Z,9.10
2023-05-15T22:20:18.964Z,9.00
2023-05-15T22:22:45.872Z,9.00
2023-05-15T22:25:12.998Z,8.70
2023-05-15T22:27:40.614Z,8.70
2023-05-15T22:30:11.087Z,8.50
2023-05-15T22:32:37.966Z,8.40
2023-05-15T22:35:05.150Z,8.40
2023-05-15T22:37:32.086Z,8.40
2023-05-15T22:39:58.880Z,8.30
2023-05-15T22:42:27.820Z,6.30
2023-05-15T22:44:57.526Z,8.30
2023-05-15T22:47:25.003Z,8.20
2023-05-15T22:49:51.828Z,8.10
2023-05-15T22:52:18.890Z,8.00
2023-05-15T22:54:45.914Z,9.60
2023-05-15T22:57:12.771Z,8.10
2023-05-15T22:59:40.002Z,8.00
2023-05-15T23:02:06.779Z,8.00
2023-05-15T23:04:33.780Z,8.00
2023-05-15T23:07:00.625Z,7.90
2023-05-15T23:09:27.357Z,7.90
2023-05-15T23:11:54.089Z,7.90
2023-05-15T23:14:21.737Z,7.80
2023-05-15T23:16:49.880Z,7.90
2023-05-15T23:19:19.794Z,7.80
2023-05-15T23:21:46.938Z,8.10
2023-05-15T23:24:13.876Z,8.00
2023-05-15T23:26:40.958Z,8.00
2023-05-15T23:29:08.782Z,8.00
2023-05-15T23:36:30.125Z,8.00
2023-05-15T23:41:24.474Z,7.70
2023-05-15T23:43:51.243Z,7.70
2023-05-15T23:48:45.327Z,7.60
2023-05-15T23:51:12.160Z,7.50
2023-05-15T23:53:38.846Z,7.50
2023-05-15T23:56:06.380Z,7.50
2023-05-15T23:58:33.839Z,7.50
